createdAt,value
2022-10-22T00:03:49.597Z,0.80
2022-10-22T00:09:03.715Z,0.40
2022-10-22T00:14:21.313Z,0.50
2022-10-22T00:19:35.532Z,0.40
2022-10-22T00:24:49.726Z,0.50
2022-10-22T00:30:07.716Z,0.52
2022-10-22T00:35:21.906Z,0.32
2022-10-22T00:40:36.647Z,0.50
2022-10-22T00:45:57.998Z,0.47
2022-10-22T00:51:14.515Z,0.52
2022-10-22T00:56:28.518Z,0.40
2022-10-22T01:01:45.702Z,0.35
2022-10-22T01:06:58.588Z,0.50
2022-10-22T01:12:20.995Z,1.02
2022-10-22T01:17:42.787Z,0.68
2022-10-22T01:23:07.362Z,0.60
2022-10-22T01:28:27.027Z,0.82
2022-10-22T01:33:45.381Z,0.45
2022-10-22T01:38:59.380Z,0.55
2022-10-22T01:44:13.736Z,0.80
2022-10-22T01:49:38.415Z,0.43
2022-10-22T01:54:57.026Z,0.40
2022-10-22T02:00:14.334Z,0.80
2022-10-22T02:05:33.297Z,0.60
2022-10-22T02:10:50.822Z,0.50
2022-10-22T02:16:05.652Z,0.63
2022-10-22T02:21:23.071Z,0.40
2022-10-22T02:26:41.447Z,0.60
2022-10-22T02:31:56.086Z,0.68
2022-10-22T02:37:13.929Z,0.50
2022-10-22T02:42:27.965Z,0.70
2022-10-22T02:47:41.507Z,0.70
2022-10-22T02:52:59.265Z,0.70
2022-10-22T02:58:13.748Z,0.68
2022-10-22T03:03:27.102Z,0.70
2022-10-22T03:08:44.917Z,0.60
2022-10-22T03:13:58.444Z,0.35
2022-10-22T03:19:13.257Z,0.47
2022-10-22T03:24:33.332Z,0.50
2022-10-22T03:29:49.279Z,0.50
2022-10-22T03:35:02.427Z,0.57
2022-10-22T03:40:21.991Z,0.40
2022-10-22T03:50:50.744Z,0.60
2022-10-22T03:56:08.693Z,0.70
2022-10-22T04:01:24.177Z,0.22
2022-10-22T04:06:38.938Z,0.40
2022-10-22T04:11:56.948Z,0.30
2022-10-22T04:17:11.301Z,0.38
2022-10-22T04:22:26.150Z,0.57
2022-10-22T04:27:44.849Z,0.75
2022-10-22T04:33:02.976Z,0.40
2022-10-22T04:38:17.573Z,0.40
2022-10-22T04:43:36.293Z,0.60
2022-10-22T04:48:52.090Z,0.90
2022-10-22T04:54:06.719Z,0.52
2022-10-22T04:59:19.159Z,0.32
2022-10-22T05:04:27.266Z,0.20
2022-10-22T05:09:35.570Z,0.50
2022-10-22T05:14:47.023Z,0.38
2022-10-22T05:19:54.839Z,0.20
2022-10-22T05:25:03.364Z,0.20
2022-10-22T05:30:14.970Z,0.32
2022-10-22T05:35:23.885Z,1.70
2022-10-22T05:40:31.919Z,1.35
2022-10-22T05:45:45.546Z,1.60
2022-10-22T05:50:54.521Z,0.50
2022-10-22T05:56:05.549Z,0.63
2022-10-22T06:01:18.224Z,1.40
2022-10-22T06:06:30.145Z,1.45
2022-10-22T06:11:38.569Z,1.20
2022-10-22T07:10:16.677Z,0.50
2022-10-22T07:15:24.592Z,0.70
2022-10-22T07:20:32.793Z,0.60
2022-10-22T07:25:43.612Z,0.40
2022-10-22T07:30:57.527Z,0.85
2022-10-22T07:36:14.567Z,0.63
2022-10-22T07:41:32.814Z,0.50
2022-10-22T07:46:48.907Z,0.40
2022-10-22T07:52:04.311Z,0.80
2022-10-22T07:57:21.992Z,1.35
2022-10-22T08:02:37.412Z,0.70
2022-10-22T08:07:55.298Z,0.50
2022-10-22T08:13:13.648Z,1.08
2022-10-22T08:18:28.714Z,0.50
2022-10-22T08:23:42.868Z,0.90
2022-10-22T08:29:00.352Z,0.40
2022-10-22T08:34:16.216Z,0.40
2022-10-22T08:39:36.594Z,0.20
2022-10-22T08:45:05.050Z,0.50
2022-10-22T08:50:22.249Z,0.40
2022-10-22T08:55:37.569Z,0.60
2022-10-22T09:00:59.728Z,1.27
2022-10-22T09:06:22.005Z,0.82
2022-10-22T09:11:39.934Z,0.60
2022-10-22T09:17:10.889Z,1.30
2022-10-22T09:33:08.531Z,3.17
2022-10-22T09:38:27.081Z,1.50
2022-10-22T09:43:42.135Z,3.35
2022-10-22T09:49:09.425Z,2.63
2022-10-22T09:54:26.184Z,1.30
2022-10-22T09:59:43.165Z,0.90
2022-10-22T10:05:02.597Z,1.23
2022-10-22T10:10:28.266Z,1.40
2022-10-22T10:15:47.623Z,0.90
2022-10-22T10:26:30.364Z,1.63
2022-10-22T10:31:49.223Z,0.98
2022-10-22T10:37:10.550Z,1.10
2022-10-22T10:42:33.015Z,1.02
2022-10-22T10:48:09.722Z,1.10
2022-10-22T10:53:36.902Z,1.23
2022-10-22T10:58:57.310Z,1.20
2022-10-22T11:04:31.436Z,1.60
2022-10-22T11:09:51.949Z,1.13
2022-10-22T11:15:13.638Z,1.80
2022-10-22T11:20:30.315Z,1.08
2022-10-22T11:25:53.815Z,2.83
2022-10-22T11:31:15.613Z,1.30
2022-10-22T11:36:34.663Z,1.33
2022-10-22T11:41:55.387Z,1.52
2022-10-22T11:47:26.269Z,1.10
2022-10-22T11:52:55.373Z,1.60
2022-10-22T11:58:52.305Z,3.70
2022-10-22T12:04:29.137Z,8.98
2022-10-22T12:09:54.782Z,4.22
2022-10-22T12:15:29.375Z,7.03
2022-10-22T12:20:46.531Z,6.40
2022-10-22T12:26:06.000Z,1.67
2022-10-22T12:31:25.704Z,1.65
2022-10-22T12:36:37.279Z,1.08
2022-10-22T12:41:51.432Z,3.45
2022-10-22T12:47:16.658Z,2.10
2022-10-22T12:52:31.280Z,3.47
2022-10-22T12:57:45.850Z,3.05
2022-10-22T13:03:07.425Z,4.70
2022-10-22T13:08:28.934Z,6.28
2022-10-22T13:13:50.904Z,5.43
2022-10-22T13:19:09.386Z,7.93
2022-10-22T13:24:33.225Z,5.97
2022-10-22T13:29:51.106Z,5.10
2022-10-22T13:35:09.642Z,3.65
2022-10-22T13:40:24.265Z,6.18
2022-10-22T13:45:37.940Z,5.50
2022-10-22T13:50:58.594Z,2.53
2022-10-22T13:56:13.508Z,2.83
2022-10-22T14:01:30.741Z,2.25
2022-10-22T14:06:47.740Z,1.92
2022-10-22T14:12:02.040Z,1.92
2022-10-22T14:17:20.205Z,2.63
2022-10-22T14:27:52.453Z,5.07
2022-10-22T14:33:01.586Z,4.53
2022-10-22T14:38:12.217Z,2.47
2022-10-22T14:43:26.071Z,2.50
2022-10-22T14:48:33.641Z,1.92
2022-10-22T14:53:44.969Z,1.25
2022-10-22T14:58:52.660Z,1.10
2022-10-22T15:03:59.859Z,2.05
2022-10-22T15:09:09.381Z,2.30
2022-10-22T15:14:17.885Z,2.72
2022-10-22T15:19:25.828Z,3.40
2022-10-22T15:24:36.657Z,1.35
2022-10-22T15:29:45.596Z,2.00
2022-10-22T15:34:54.047Z,1.08
2022-10-22T15:40:05.730Z,0.80
2022-10-22T15:45:14.985Z,1.47
2022-10-22T15:50:23.184Z,1.02
2022-10-22T15:55:34.171Z,0.60
2022-10-22T16:00:42.961Z,0.80
2022-10-22T16:05:58.368Z,0.93
2022-10-22T16:11:09.522Z,0.60
2022-10-22T16:16:17.941Z,1.45
2022-10-22T16:21:28.297Z,1.10
2022-10-22T16:26:39.909Z,1.10
2022-10-22T16:31:48.404Z,0.95
2022-10-22T16:36:57.812Z,0.85
2022-10-22T16:42:08.643Z,1.00
2022-10-22T16:47:16.972Z,1.20
2022-10-22T16:52:24.995Z,1.30
2022-10-22T16:57:37.528Z,0.90
2022-10-22T17:02:45.684Z,0.60
2022-10-22T17:07:52.805Z,0.85
2022-10-22T17:13:03.732Z,0.70
2022-10-22T17:18:12.379Z,0.70
2022-10-22T17:23:21.007Z,0.47
2022-10-22T17:28:33.398Z,0.77
2022-10-22T17:33:42.232Z,0.70
2022-10-22T17:38:54.004Z,0.88
2022-10-22T17:44:07.873Z,0.82
2022-10-22T17:49:21.930Z,0.75
2022-10-22T17:54:30.274Z,0.65
2022-10-22T17:59:42.003Z,0.65
2022-10-22T18:04:51.517Z,0.80
2022-10-22T18:10:00.764Z,1.08
2022-10-22T18:15:13.489Z,0.63
2022-10-22T18:20:22.483Z,0.75
2022-10-22T18:25:32.941Z,0.95
2022-10-22T18:30:45.584Z,0.70
2022-10-22T18:35:58.320Z,0.80
2022-10-22T18:41:07.526Z,0.90
2022-10-22T18:46:17.452Z,1.20
2022-10-22T18:51:26.212Z,1.20
2022-10-22T18:56:33.357Z,1.52
2022-10-22T19:01:48.958Z,1.98
2022-10-22T19:07:03.776Z,1.95
2022-10-22T19:12:18.504Z,1.98
2022-10-22T19:17:35.301Z,1.70
2022-10-22T19:22:49.342Z,1.83
2022-10-22T19:28:02.769Z,1.90
2022-10-22T19:33:21.510Z,1.85
2022-10-22T19:38:34.767Z,2.30
2022-10-22T19:43:49.132Z,1.67
2022-10-22T19:49:09.326Z,1.48
2022-10-22T19:54:26.961Z,1.23
2022-10-22T19:59:40.549Z,1.20
2022-10-22T20:04:58.019Z,1.20
2022-10-22T20:10:11.414Z,1.10
2022-10-22T20:15:27.891Z,1.15
2022-10-22T20:20:48.985Z,1.15
2022-10-22T20:26:05.615Z,1.15
2022-10-22T20:31:19.586Z,1.27
2022-10-22T20:36:37.739Z,1.20
2022-10-22T20:41:51.266Z,1.42
2022-10-22T20:47:04.459Z,1.40
2022-10-22T20:52:21.135Z,1.60
2022-10-22T20:57:34.212Z,1.17
2022-10-22T21:02:47.430Z,1.15
2022-10-22T21:08:04.786Z,1.20
2022-10-22T21:13:17.629Z,1.38
2022-10-22T21:18:30.928Z,1.20
2022-10-22T21:23:52.992Z,1.25
2022-10-22T21:29:06.426Z,1.10
2022-10-22T21:34:20.049Z,1.02
2022-10-22T21:39:41.082Z,0.93
2022-10-22T21:44:59.903Z,0.93
2022-10-22T21:50:14.065Z,0.98
2022-10-22T21:55:30.743Z,1.00
2022-10-22T22:00:45.479Z,1.00
2022-10-22T22:06:03.980Z,1.00
2022-10-22T22:11:22.601Z,1.05
2022-10-22T22:16:39.667Z,1.30
2022-10-22T22:21:55.021Z,1.45
2022-10-22T22:27:14.509Z,1.20
2022-10-22T22:32:30.434Z,1.02
2022-10-22T22:37:44.793Z,1.63
2022-10-22T22:43:01.348Z,1.08
2022-10-22T22:48:19.858Z,1.40
2022-10-22T22:53:32.024Z,1.17
2022-10-22T22:58:47.690Z,1.20
2022-10-22T23:04:02.670Z,1.27
2022-10-22T23:09:17.582Z,1.17
2022-10-22T23:14:33.706Z,1.23
2022-10-22T23:19:46.923Z,1.60
2022-10-22T23:24:59.126Z,1.55
2022-10-22T23:30:16.211Z,1.50
2022-10-22T23:35:32.396Z,1.50
2022-10-22T23:40:44.648Z,1.40
2022-10-22T23:46:00.435Z,1.20
2022-10-22T23:51:14.922Z,1.20
2022-10-22T23:56:27.390Z,1.23
